createdAt,value
2022-12-17T00:01:22.213Z,5.93
2022-12-17T00:04:08.877Z,7.43
2022-12-17T00:06:56.429Z,5.75
2022-12-17T00:09:48.585Z,6.37
2022-12-17T00:12:36.360Z,6.97
2022-12-17T00:15:23.165Z,6.37
2022-12-17T00:18:09.672Z,6.18
2022-12-17T00:20:56.038Z,6.47
2022-12-17T00:23:42.942Z,6.10
2022-12-17T00:26:29.528Z,5.87
2022-12-17T00:29:26.523Z,6.78
2022-12-17T00:32:13.116Z,6.25
2022-12-17T00:34:59.191Z,6.28
2022-12-17T00:37:45.398Z,7.82
2022-12-17T00:40:31.906Z,6.75
2022-12-17T00:43:29.692Z,6.53
2022-12-17T00:46:16.344Z,5.25
2022-12-17T00:49:02.562Z,5.97
2022-12-17T00:51:49.045Z,5.78
2022-12-17T00:54:35.424Z,5.97
2022-12-17T00:57:21.666Z,6.10
2022-12-17T01:00:08.026Z,6.30
2022-12-17T01:02:54.566Z,6.05
2022-12-17T01:05:42.593Z,5.22
2022-12-17T01:08:30.218Z,7.12
2022-12-17T01:11:24.915Z,5.80
2022-12-17T01:14:12.114Z,4.95
2022-12-17T01:16:58.536Z,7.50
2022-12-17T01:19:44.794Z,5.00
2022-12-17T01:22:31.300Z,5.15
2022-12-17T01:25:17.584Z,6.68
2022-12-17T01:28:08.210Z,5.40
2022-12-17T01:30:56.913Z,6.10
2022-12-17T01:33:43.504Z,6.62
2022-12-17T01:36:29.883Z,5.65
2022-12-17T01:39:16.110Z,5.60
2022-12-17T01:42:02.567Z,6.55
2022-12-17T01:45:06.699Z,6.00
2022-12-17T01:48:07.151Z,6.30
2022-12-17T01:50:59.288Z,6.47
2022-12-17T01:53:50.817Z,5.62
2022-12-17T01:56:37.683Z,5.97
2022-12-17T01:59:25.398Z,5.78
2022-12-17T02:02:13.558Z,7.22
2022-12-17T02:05:00.113Z,6.62
2022-12-17T02:08:08.637Z,5.50
2022-12-17T02:11:18.932Z,5.70
2022-12-17T02:14:31.963Z,5.60
2022-12-17T02:17:23.307Z,7.22
2022-12-17T02:20:40.011Z,5.97
2022-12-17T02:24:01.794Z,6.00
2022-12-17T02:26:58.283Z,6.03
2022-12-17T02:29:47.486Z,7.43
2022-12-17T02:32:34.770Z,6.85
2022-12-17T02:35:23.895Z,6.12
2022-12-17T02:38:10.323Z,6.68
2022-12-17T02:41:14.617Z,7.45
2022-12-17T02:44:01.043Z,8.43
2022-12-17T02:46:47.481Z,7.05
2022-12-17T02:49:33.924Z,6.62
2022-12-17T02:52:20.444Z,7.50
2022-12-17T02:55:06.617Z,6.43
2022-12-17T02:57:54.072Z,6.37
2022-12-17T03:00:40.436Z,5.40
2022-12-17T03:03:27.012Z,5.87
2022-12-17T03:06:13.266Z,8.27
2022-12-17T03:08:59.531Z,6.70
2022-12-17T03:11:48.890Z,6.65
2022-12-17T03:14:35.690Z,7.72
2022-12-17T03:17:22.164Z,6.82
2022-12-17T03:20:08.615Z,6.40
2022-12-17T03:22:54.993Z,6.12
2022-12-17T03:25:41.592Z,8.65
2022-12-17T03:28:31.177Z,7.15
2022-12-17T03:31:18.941Z,8.65
2022-12-17T03:34:06.274Z,7.65
2022-12-17T03:36:52.873Z,7.12
2022-12-17T03:39:38.742Z,6.37
2022-12-17T03:42:25.039Z,6.90
2022-12-17T03:45:11.530Z,5.50
2022-12-17T03:47:57.815Z,6.45
2022-12-17T03:50:44.334Z,7.35
2022-12-17T03:53:30.655Z,7.95
2022-12-17T03:56:16.618Z,9.88
2022-12-17T03:59:03.075Z,7.28
2022-12-17T04:01:49.381Z,5.35
2022-12-17T04:04:35.735Z,8.82
2022-12-17T04:07:22.318Z,8.60
2022-12-17T04:10:08.868Z,8.20
2022-12-17T04:12:54.861Z,6.70
2022-12-17T04:15:41.525Z,8.07
2022-12-17T04:18:27.879Z,7.75
2022-12-17T04:21:14.271Z,8.20
2022-12-17T04:24:00.624Z,8.70
2022-12-17T04:26:46.983Z,7.62
2022-12-17T04:29:33.121Z,7.68
2022-12-17T04:32:19.433Z,8.18
2022-12-17T04:35:05.576Z,6.80
2022-12-17T04:37:51.902Z,7.37
2022-12-17T04:40:38.041Z,7.93
2022-12-17T04:43:29.364Z,7.50
2022-12-17T04:46:15.772Z,8.63
2022-12-17T04:49:02.387Z,6.53
2022-12-17T04:51:48.908Z,7.75
2022-12-17T04:54:35.402Z,8.55
2022-12-17T04:57:21.435Z,8.48
2022-12-17T05:00:07.922Z,8.30
2022-12-17T05:02:54.550Z,7.97
2022-12-17T05:05:41.137Z,7.10
2022-12-17T05:08:27.488Z,7.95
2022-12-17T05:11:13.937Z,7.50
2022-12-17T05:13:59.955Z,8.57
2022-12-17T05:16:46.499Z,7.82
2022-12-17T05:19:33.098Z,8.50
2022-12-17T05:22:19.262Z,7.05
2022-12-17T05:25:05.457Z,7.65
2022-12-17T05:27:51.635Z,7.25
2022-12-17T05:30:37.884Z,6.55
2022-12-17T05:33:24.577Z,8.20
2022-12-17T05:36:11.101Z,7.07
2022-12-17T05:38:57.536Z,7.93
2022-12-17T05:41:43.688Z,7.25
2022-12-17T05:44:30.278Z,7.93
2022-12-17T05:47:16.104Z,8.55
2022-12-17T05:50:02.608Z,8.75
2022-12-17T05:52:48.815Z,7.90
2022-12-17T05:55:35.704Z,8.55
2022-12-17T05:58:26.803Z,7.62
2022-12-17T06:01:17.600Z,6.95
2022-12-17T06:04:03.796Z,8.20
2022-12-17T06:06:50.673Z,9.30
2022-12-17T06:09:37.044Z,8.18
2022-12-17T06:12:23.184Z,7.85
2022-12-17T06:15:09.178Z,6.72
2022-12-17T06:18:03.124Z,8.50
2022-12-17T06:20:49.521Z,8.10
2022-12-17T06:23:36.390Z,8.10
2022-12-17T06:26:22.945Z,8.40
2022-12-17T06:29:09.232Z,7.93
2022-12-17T06:31:55.048Z,7.43
2022-12-17T06:34:41.417Z,6.78
2022-12-17T06:37:27.631Z,7.45
2022-12-17T06:40:13.695Z,7.85
2022-12-17T06:42:59.820Z,8.68
2022-12-17T06:45:45.639Z,5.68
2022-12-17T06:48:31.907Z,7.22
2022-12-17T06:51:18.380Z,8.35
2022-12-17T06:54:04.730Z,7.75
2022-12-17T06:56:51.370Z,7.47
2022-12-17T06:59:37.225Z,9.75
2022-12-17T07:02:23.604Z,8.80
2022-12-17T07:05:09.982Z,7.05
2022-12-17T07:07:56.545Z,7.43
2022-12-17T07:10:43.505Z,8.45
2022-12-17T07:13:29.838Z,9.15
2022-12-17T07:16:16.465Z,7.85
2022-12-17T07:19:03.025Z,8.45
2022-12-17T07:21:49.277Z,8.90
2022-12-17T07:24:55.017Z,8.50
2022-12-17T07:27:41.377Z,8.05
2022-12-17T07:30:28.233Z,8.02
2022-12-17T07:33:21.794Z,10.63
2022-12-17T07:36:07.883Z,11.30
2022-12-17T07:38:54.345Z,11.77
2022-12-17T07:41:40.551Z,12.07
2022-12-17T07:44:27.072Z,12.00
2022-12-17T07:47:13.692Z,10.55
2022-12-17T07:50:00.175Z,8.48
2022-12-17T07:52:46.083Z,10.23
2022-12-17T07:55:32.339Z,10.07
2022-12-17T07:58:24.464Z,9.73
2022-12-17T08:01:10.893Z,10.48
2022-12-17T08:03:57.162Z,8.50
2022-12-17T08:06:43.709Z,10.60
2022-12-17T08:09:30.316Z,10.35
2022-12-17T08:12:16.799Z,8.10
2022-12-17T08:15:03.061Z,10.02
2022-12-17T08:17:49.372Z,11.30
2022-12-17T08:20:36.007Z,9.05
2022-12-17T08:23:25.492Z,8.00
2022-12-17T08:26:11.831Z,9.70
2022-12-17T08:28:58.251Z,10.25
2022-12-17T08:31:44.755Z,9.27
2022-12-17T08:34:31.001Z,10.57
2022-12-17T08:37:17.182Z,10.80
2022-12-17T08:40:03.488Z,9.77
2022-12-17T08:42:49.755Z,9.43
2022-12-17T08:45:36.261Z,11.60
2022-12-17T08:48:27.088Z,10.48
2022-12-17T08:51:14.000Z,12.10
2022-12-17T08:54:00.575Z,8.98
2022-12-17T08:56:47.034Z,10.82
2022-12-17T08:59:33.388Z,7.65
2022-12-17T09:02:19.538Z,8.25
2022-12-17T09:05:06.017Z,9.32
2022-12-17T09:07:52.556Z,8.18
2022-12-17T09:10:38.936Z,9.57
2022-12-17T09:13:25.477Z,8.75
2022-12-17T09:19:55.712Z,9.93
2022-12-17T09:22:41.801Z,10.55
2022-12-17T09:25:28.266Z,10.13
2022-12-17T09:28:14.736Z,9.82
2022-12-17T09:31:01.188Z,10.68
2022-12-17T09:33:47.456Z,10.15
2022-12-17T09:36:33.688Z,7.78
2022-12-17T09:39:20.127Z,8.35
2022-12-17T09:42:18.223Z,10.23
2022-12-17T09:45:18.920Z,8.20
2022-12-17T09:48:39.494Z,8.80
2022-12-17T09:51:31.215Z,8.18
2022-12-17T09:54:18.067Z,8.18
2022-12-17T09:57:04.533Z,7.53
2022-12-17T09:59:55.413Z,7.05
2022-12-17T10:02:48.907Z,7.30
2022-12-17T10:05:48.342Z,9.35
2022-12-17T10:08:39.385Z,7.30
2022-12-17T10:11:38.708Z,10.52
2022-12-17T10:14:40.450Z,9.43
2022-12-17T10:17:35.192Z,9.32
2022-12-17T10:20:22.122Z,8.88
2022-12-17T10:23:09.923Z,10.60
2022-12-17T10:25:56.201Z,8.98
2022-12-17T10:28:44.310Z,8.88
2022-12-17T10:31:42.099Z,7.75
2022-12-17T10:34:39.606Z,8.38
2022-12-17T10:37:37.892Z,8.70
2022-12-17T10:41:09.659Z,7.25
2022-12-17T10:43:58.794Z,9.13
2022-12-17T10:46:51.999Z,8.93
2022-12-17T10:49:41.872Z,10.27
2022-12-17T10:52:58.208Z,8.20
2022-12-17T10:55:49.658Z,8.05
2022-12-17T10:58:42.901Z,10.80
2022-12-17T11:01:40.113Z,7.95
2022-12-17T11:04:44.726Z,8.15
2022-12-17T11:07:54.361Z,7.65
2022-12-17T11:10:44.113Z,9.10
2022-12-17T11:13:53.384Z,8.75
2022-12-17T11:16:54.420Z,7.80
2022-12-17T11:19:58.184Z,8.02
2022-12-17T11:22:50.987Z,9.02
2022-12-17T11:26:07.715Z,8.95
2022-12-17T11:28:55.718Z,9.35
2022-12-17T11:31:54.098Z,8.18
2022-12-17T11:34:55.377Z,10.77
2022-12-17T11:37:58.140Z,8.65
2022-12-17T11:40:58.615Z,6.95
2022-12-17T11:43:48.672Z,9.32
2022-12-17T11:46:49.453Z,10.27
2022-12-17T11:49:45.065Z,8.80
2022-12-17T11:53:00.397Z,7.00
2022-12-17T11:55:52.618Z,10.57
2022-12-17T11:58:58.898Z,11.25
2022-12-17T12:01:54.235Z,8.77
2022-12-17T12:04:49.589Z,8.02
2022-12-17T12:08:02.635Z,9.65
2022-12-17T12:11:03.205Z,10.00
2022-12-17T12:13:58.245Z,9.32
2022-12-17T12:17:16.618Z,7.87
2022-12-17T12:20:33.281Z,7.85
2022-12-17T12:23:31.255Z,10.13
2022-12-17T12:26:20.695Z,8.70
2022-12-17T12:29:26.862Z,9.82
2022-12-17T12:32:39.979Z,9.73
2022-12-17T12:35:35.097Z,9.65
2022-12-17T12:38:22.365Z,9.82
2022-12-17T12:41:19.345Z,9.57
2022-12-17T12:44:29.077Z,8.80
2022-12-17T12:47:27.155Z,10.05
2022-12-17T12:50:34.610Z,8.43
2022-12-17T12:53:21.125Z,9.07
2022-12-17T12:56:07.498Z,9.32
2022-12-17T12:58:54.230Z,9.20
2022-12-17T13:01:52.025Z,9.00
2022-12-17T13:04:55.551Z,10.43
2022-12-17T13:07:28.903Z,9.43
2022-12-17T13:09:59.300Z,9.63
2022-12-17T13:12:34.301Z,9.98
2022-12-17T13:15:07.855Z,10.80
2022-12-17T13:17:56.404Z,11.63
2022-12-17T13:20:31.712Z,10.32
2022-12-17T13:23:27.395Z,11.45
2022-12-17T13:26:22.049Z,10.30
2022-12-17T13:28:51.529Z,9.73
2022-12-17T13:31:26.232Z,10.65
2022-12-17T13:34:06.238Z,8.50
2022-12-17T13:37:08.344Z,8.75
2022-12-17T13:39:47.431Z,8.50
2022-12-17T13:42:41.593Z,7.07
2022-12-17T13:45:17.386Z,8.25
2022-12-17T13:47:45.219Z,11.27
2022-12-17T13:50:36.688Z,10.38
2022-12-17T13:53:13.179Z,8.88
2022-12-17T13:55:41.326Z,11.30
2022-12-17T13:58:31.612Z,9.27
2022-12-17T14:01:27.441Z,8.55
2022-12-17T14:04:06.368Z,9.55
2022-12-17T14:06:38.823Z,9.90
2022-12-17T14:09:07.485Z,9.38
2022-12-17T14:11:57.110Z,8.32
2022-12-17T14:14:37.381Z,9.10
2022-12-17T14:17:05.592Z,9.25
2022-12-17T14:19:34.761Z,11.20
2022-12-17T14:22:02.620Z,10.20
2022-12-17T14:24:30.716Z,10.20
2022-12-17T14:27:00.852Z,10.82
2022-12-17T14:29:31.692Z,9.88
2022-12-17T14:32:21.071Z,9.73
2022-12-17T14:34:48.871Z,9.88
2022-12-17T14:37:20.918Z,9.00
2022-12-17T14:39:49.698Z,9.73
2022-12-17T14:42:30.599Z,9.60
2022-12-17T14:44:58.297Z,9.35
2022-12-17T14:47:29.293Z,10.15
2022-12-17T14:50:00.016Z,9.90
2022-12-17T14:52:42.639Z,8.80
2022-12-17T14:55:32.558Z,8.50
2022-12-17T14:58:15.311Z,8.10
2022-12-17T15:00:47.191Z,9.50
2022-12-17T15:03:38.650Z,8.88
2022-12-17T15:06:08.573Z,9.18
2022-12-17T15:08:40.943Z,9.57
2022-12-17T15:11:10.978Z,9.57
2022-12-17T15:13:38.681Z,9.43
2022-12-17T15:16:06.951Z,12.13
2022-12-17T15:18:35.079Z,11.98
2022-12-17T15:21:03.312Z,13.02
2022-12-17T15:23:32.420Z,12.00
2022-12-17T15:26:00.429Z,11.32
2022-12-17T15:28:28.157Z,9.45
2022-12-17T15:30:55.972Z,10.68
2022-12-17T15:33:23.684Z,10.50
2022-12-17T15:35:51.440Z,12.40
2022-12-17T15:38:19.130Z,14.00
2022-12-17T15:40:47.063Z,13.57
2022-12-17T15:43:15.785Z,12.68
2022-12-17T15:45:50.350Z,10.77
2022-12-17T15:48:24.359Z,12.18
2022-12-17T15:50:52.134Z,9.80
2022-12-17T15:53:19.905Z,11.30
2022-12-17T15:55:47.535Z,12.25
2022-12-17T15:58:15.426Z,11.27
2022-12-17T16:00:43.190Z,11.55
2022-12-17T16:03:11.098Z,10.10
2022-12-17T16:05:38.902Z,11.43
2022-12-17T16:08:06.735Z,13.52
2022-12-17T16:10:34.420Z,14.02
2022-12-17T16:13:02.179Z,14.93
2022-12-17T16:15:30.112Z,11.73
2022-12-17T16:17:57.794Z,10.13
2022-12-17T16:20:25.836Z,10.82
2022-12-17T16:22:53.535Z,10.77
2022-12-17T16:25:21.301Z,12.13
2022-12-17T16:27:48.973Z,10.65
2022-12-17T16:30:16.835Z,10.60
2022-12-17T16:32:44.532Z,11.07
2022-12-17T16:35:12.320Z,11.57
2022-12-17T16:37:39.984Z,11.35
2022-12-17T16:40:08.243Z,11.20
2022-12-17T16:42:35.895Z,13.25
2022-12-17T16:45:03.549Z,11.60
2022-12-17T16:47:31.263Z,10.32
2022-12-17T16:49:58.980Z,10.45
2022-12-17T16:52:26.708Z,10.65
2022-12-17T16:54:54.448Z,11.98
2022-12-17T16:57:22.204Z,11.35
2022-12-17T16:59:49.955Z,11.12
2022-12-17T17:02:18.018Z,11.73
2022-12-17T17:04:46.077Z,9.93
2022-12-17T17:07:13.768Z,14.55
2022-12-17T17:09:41.479Z,11.25
2022-12-17T17:12:10.139Z,11.48
2022-12-17T17:14:37.889Z,11.57
2022-12-17T17:17:05.648Z,11.50
2022-12-17T17:19:33.479Z,11.35
2022-12-17T17:22:01.203Z,14.20
2022-12-17T17:24:28.888Z,13.68
2022-12-17T17:26:56.860Z,14.65
2022-12-17T17:29:24.838Z,14.48
2022-12-17T17:32:09.854Z,14.13
2022-12-17T17:34:39.906Z,14.00
2022-12-17T17:37:07.741Z,14.23
2022-12-17T17:39:35.846Z,16.30
2022-12-17T17:42:03.787Z,14.38
2022-12-17T17:44:31.478Z,13.43
2022-12-17T17:46:59.389Z,17.23
2022-12-17T17:49:27.246Z,16.48
2022-12-17T17:52:11.330Z,14.80
2022-12-17T17:54:40.608Z,12.25
2022-12-17T17:57:08.953Z,13.95
2022-12-17T17:59:36.726Z,15.48
2022-12-17T18:02:04.747Z,12.65
2022-12-17T18:04:33.389Z,14.68
2022-12-17T18:07:25.334Z,12.85
2022-12-17T18:09:48.904Z,17.55
2022-12-17T18:12:35.090Z,15.63
2022-12-17T18:15:14.265Z,15.95
2022-12-17T18:17:43.272Z,17.08
2022-12-17T18:20:11.764Z,17.25
2022-12-17T18:22:39.431Z,14.32
2022-12-17T18:25:07.268Z,13.20
2022-12-17T18:27:34.965Z,17.15
2022-12-17T18:30:02.637Z,17.48
2022-12-17T18:32:30.313Z,15.32
2022-12-17T18:34:58.072Z,14.82
2022-12-17T18:37:25.835Z,14.70
2022-12-17T18:39:53.447Z,12.07
2022-12-17T18:42:39.835Z,14.23
2022-12-17T18:45:08.228Z,14.10
2022-12-17T18:47:35.926Z,18.92
2022-12-17T18:50:03.646Z,16.55
2022-12-17T18:52:31.381Z,16.55
2022-12-17T18:54:59.065Z,17.25
2022-12-17T18:57:26.859Z,17.77
2022-12-17T18:59:54.523Z,18.05
2022-12-17T19:02:22.364Z,13.77
2022-12-17T19:04:50.157Z,16.25
2022-12-17T19:07:17.832Z,16.75
2022-12-17T19:09:45.618Z,15.50
2022-12-17T19:12:13.288Z,14.40
2022-12-17T19:14:41.118Z,19.75
2022-12-17T19:17:08.757Z,14.13
2022-12-17T19:19:36.468Z,16.48
2022-12-17T19:22:04.578Z,18.65
2022-12-17T19:24:32.306Z,16.85
2022-12-17T19:27:00.034Z,17.55
2022-12-17T19:29:27.918Z,13.65
2022-12-17T19:31:55.641Z,19.62
2022-12-17T19:34:23.343Z,13.65
2022-12-17T19:36:51.361Z,15.20
2022-12-17T19:39:20.813Z,14.98
2022-12-17T19:41:48.502Z,14.02
2022-12-17T19:44:18.494Z,16.10
2022-12-17T19:46:46.291Z,17.40
2022-12-17T19:49:16.603Z,14.38
2022-12-17T19:51:45.219Z,17.60
2022-12-17T19:54:16.004Z,14.57
2022-12-17T19:56:45.363Z,15.63
2022-12-17T19:59:14.230Z,15.07
2022-12-17T20:01:45.358Z,15.13
2022-12-17T20:04:14.704Z,14.90
2022-12-17T20:06:42.813Z,17.08
2022-12-17T20:09:10.585Z,17.42
2022-12-17T20:11:38.683Z,16.00
2022-12-17T20:14:16.950Z,14.75
2022-12-17T20:16:59.146Z,18.30
2022-12-17T20:19:32.168Z,18.50
2022-12-17T20:22:01.709Z,15.27
2022-12-17T20:24:31.892Z,14.45
2022-12-17T20:27:00.466Z,14.20
2022-12-17T20:29:28.456Z,16.77
2022-12-17T20:31:56.849Z,14.93
2022-12-17T20:34:26.223Z,17.08
2022-12-17T20:36:54.855Z,14.13
2022-12-17T20:39:27.162Z,14.40
2022-12-17T20:41:56.057Z,14.93
2022-12-17T20:44:23.877Z,14.43
2022-12-17T20:46:51.575Z,15.20
2022-12-17T20:49:19.241Z,12.85
2022-12-17T20:51:47.075Z,15.15
2022-12-17T20:54:14.874Z,15.10
2022-12-17T20:56:42.588Z,16.37
2022-12-17T20:59:16.357Z,18.33
2022-12-17T21:01:44.754Z,17.52
2022-12-17T21:04:14.670Z,16.10
2022-12-17T21:06:47.257Z,15.57
2022-12-17T21:09:16.662Z,14.52
2022-12-17T21:11:44.395Z,16.08
2022-12-17T21:14:15.403Z,14.27
2022-12-17T21:16:44.322Z,14.77
2022-12-17T21:19:18.175Z,13.93
2022-12-17T21:21:46.147Z,13.90
2022-12-17T21:24:13.939Z,18.75
2022-12-17T21:26:43.593Z,16.75
2022-12-17T21:29:12.245Z,14.77
2022-12-17T21:31:43.708Z,14.27
2022-12-17T21:34:15.141Z,18.12
2022-12-17T21:36:43.770Z,16.10
2022-12-17T21:39:14.333Z,14.30
2022-12-17T21:41:44.697Z,15.25
2022-12-17T21:44:14.627Z,16.77
2022-12-17T21:46:46.297Z,17.02
2022-12-17T21:49:17.980Z,14.52
2022-12-17T21:51:45.812Z,18.23
2022-12-17T21:54:19.369Z,15.38
2022-12-17T21:56:47.904Z,16.00
2022-12-17T21:59:15.623Z,17.12
2022-12-17T22:01:43.463Z,19.12
2022-12-17T22:04:11.425Z,15.63
2022-12-17T22:06:40.236Z,13.80
2022-12-17T22:09:14.739Z,17.90
2022-12-17T22:11:47.654Z,15.75
2022-12-17T22:14:20.820Z,18.90
2022-12-17T22:16:50.284Z,18.70
2022-12-17T22:19:22.471Z,17.05
2022-12-17T22:21:55.799Z,19.92
2022-12-17T22:24:26.193Z,16.85
2022-12-17T22:27:01.238Z,15.00
2022-12-17T22:30:04.695Z,17.02
2022-12-17T22:32:51.163Z,19.83
2022-12-17T22:36:52.124Z,16.42
2022-12-17T22:41:07.759Z,16.83
2022-12-17T22:44:29.566Z,17.08
2022-12-17T22:44:46.141Z,14.65
2022-12-17T22:46:32.699Z,17.52
2022-12-17T22:49:00.650Z,20.83
2022-12-17T22:51:31.474Z,19.73
2022-12-17T22:54:09.277Z,15.50
2022-12-17T22:57:31.446Z,19.80
2022-12-17T22:59:26.912Z,19.40
2022-12-17T23:01:54.772Z,18.02
2022-12-17T23:04:22.833Z,20.48
2022-12-17T23:06:50.667Z,18.05
2022-12-17T23:09:20.316Z,17.95
2022-12-17T23:11:49.446Z,18.42
2022-12-17T23:14:18.250Z,19.52
2022-12-17T23:16:47.881Z,16.37
2022-12-17T23:19:15.716Z,16.73
2022-12-17T23:21:43.489Z,19.30
2022-12-17T23:24:11.151Z,14.55
2022-12-17T23:26:39.174Z,16.95
2022-12-17T23:29:13.580Z,16.40
2022-12-17T23:31:43.907Z,16.65
2022-12-17T23:34:11.726Z,17.73
2022-12-17T23:36:39.460Z,16.60
2022-12-17T23:39:07.672Z,16.70
2022-12-17T23:41:35.511Z,16.83
2022-12-17T23:44:03.179Z,17.42
2022-12-17T23:46:31.838Z,16.05
2022-12-17T23:48:59.806Z,21.45
2022-12-17T23:51:27.677Z,16.17
2022-12-17T23:53:55.411Z,14.32
2022-12-17T23:56:25.668Z,15.85
2022-12-17T23:59:02.228Z,17.77
